createdAt,value
2024-01-03T00:00:00.932Z,122.70
2024-01-03T00:10:01.818Z,122.40
2024-01-03T00:20:01.299Z,124.60
2024-01-03T00:30:01.259Z,118.50
2024-01-03T00:40:01.474Z,90.30
2024-01-03T01:00:02.256Z,102.80
2024-01-03T01:10:02.089Z,104.60
2024-01-03T01:20:02.338Z,90.90
2024-01-03T01:30:02.569Z,93.30
2024-01-03T01:40:01.556Z,116.70
2024-01-03T01:50:02.413Z,137.60
2024-01-03T02:00:01.485Z,139.90
2024-01-03T02:10:00.280Z,142.50
2024-01-03T02:20:02.123Z,117.70
2024-01-03T02:30:01.250Z,110.30
2024-01-03T02:40:02.587Z,111.00
2024-01-03T02:50:01.818Z,118.20
2024-01-03T03:00:02.036Z,115.90
2024-01-03T03:10:01.333Z,123.90
2024-01-03T03:20:01.097Z,112.70
2024-01-03T03:30:01.143Z,124.20
2024-01-03T03:40:01.596Z,123.60
2024-01-03T03:50:01.386Z,117.20
2024-01-03T04:00:01.681Z,124.30
2024-01-03T04:10:01.103Z,115.60
2024-01-03T04:20:01.418Z,158.40
2024-01-03T04:30:01.184Z,116.70
2024-01-03T04:40:01.533Z,118.80
2024-01-03T04:50:01.218Z,118.30
2024-01-03T05:00:01.428Z,107.30
2024-01-03T05:10:01.050Z,113.50
2024-01-03T05:20:01.374Z,102.90
2024-01-03T05:30:00.441Z,107.40
2024-01-03T05:40:01.911Z,140.60
2024-01-03T05:50:02.819Z,129.30
2024-01-03T06:00:00.416Z,115.20
2024-01-03T06:10:01.537Z,126.10
2024-01-03T06:20:00.453Z,125.60
2024-01-03T06:30:01.517Z,133.10
2024-01-03T06:40:01.359Z,117.50
2024-01-03T06:50:00.397Z,123.30
2024-01-03T07:00:00.380Z,150.20
2024-01-03T07:10:01.120Z,121.30
2024-01-03T07:20:01.114Z,94.20
2024-01-03T07:30:00.491Z,122.50
2024-01-03T07:40:02.070Z,96.70
2024-01-03T07:50:02.165Z,113.00
2024-01-03T08:00:02.398Z,122.80
2024-01-03T08:10:01.356Z,117.40
2024-01-03T08:20:01.469Z,118.30
2024-01-03T08:30:01.096Z,129.50
2024-01-03T08:40:01.327Z,134.50
2024-01-03T08:50:01.355Z,117.60
2024-01-03T09:00:00.421Z,113.00
2024-01-03T09:10:01.308Z,116.20
2024-01-03T09:20:01.129Z,137.50
2024-01-03T09:30:01.525Z,115.40
2024-01-03T09:40:01.052Z,136.20
2024-01-03T09:50:01.064Z,143.00
2024-01-03T10:00:00.427Z,163.10
2024-01-03T10:10:01.074Z,160.40
2024-01-03T10:20:01.249Z,175.40
2024-01-03T10:30:01.090Z,171.40
2024-01-03T10:40:01.042Z,241.00
2024-01-03T10:50:00.996Z,308.80
2024-01-03T11:00:02.143Z,407.60
2024-01-03T11:10:01.056Z,437.10
2024-01-03T11:20:01.016Z,461.80
2024-01-03T11:30:02.013Z,477.30
2024-01-03T11:40:02.979Z,503.10
2024-01-03T11:50:01.483Z,471.50
2024-01-03T12:00:00.393Z,483.80
2024-01-03T12:10:01.333Z,488.80
2024-01-03T12:20:01.552Z,454.70
2024-01-03T12:30:01.273Z,428.30
2024-01-03T12:40:01.448Z,467.50
2024-01-03T12:50:01.129Z,396.40
2024-01-03T13:00:00.498Z,349.70
2024-01-03T13:10:02.593Z,364.40
2024-01-03T13:20:01.008Z,383.40
2024-01-03T13:30:03.157Z,361.30
2024-01-03T13:40:00.466Z,373.90
2024-01-03T13:50:01.045Z,346.10
2024-01-03T14:00:01.238Z,337.30
2024-01-03T14:10:01.010Z,364.60
2024-01-03T14:20:00.330Z,350.50
2024-01-03T14:30:02.002Z,353.60
2024-01-03T14:50:01.194Z,373.90
2024-01-03T15:00:01.397Z,356.70
2024-01-03T15:10:01.192Z,363.10
2024-01-03T15:20:01.972Z,369.70
2024-01-03T15:30:01.365Z,361.30
2024-01-03T15:40:02.300Z,356.30
2024-01-03T15:50:00.308Z,331.10
2024-01-03T16:00:01.141Z,309.60
2024-01-03T16:10:01.603Z,322.50
2024-01-03T16:20:01.269Z,326.30
2024-01-03T16:30:01.296Z,336.20
2024-01-03T16:40:02.681Z,369.40
2024-01-03T16:50:01.358Z,351.10
2024-01-03T17:00:01.424Z,355.90
2024-01-03T17:10:01.461Z,349.70
2024-01-03T17:20:01.169Z,358.30
2024-01-03T17:30:01.505Z,396.30
2024-01-03T17:40:01.376Z,403.60
2024-01-03T17:50:00.429Z,361.00
2024-01-03T18:00:02.192Z,343.60
2024-01-03T18:10:02.077Z,374.80
2024-01-03T18:20:01.190Z,344.30
2024-01-03T18:30:02.152Z,342.40
2024-01-03T18:40:00.340Z,337.30
2024-01-03T18:50:02.128Z,337.90
2024-01-03T19:00:01.096Z,346.20
2024-01-03T19:10:02.782Z,375.80
2024-01-03T19:20:01.237Z,387.20
2024-01-03T19:30:02.088Z,348.70
2024-01-03T19:40:01.329Z,376.40
2024-01-03T19:50:01.705Z,402.30
2024-01-03T20:00:00.323Z,387.30
2024-01-03T20:10:01.518Z,405.70
2024-01-03T20:20:02.460Z,394.70
2024-01-03T20:30:00.482Z,342.40
2024-01-03T20:40:02.186Z,341.70
2024-01-03T20:50:01.974Z,302.90
2024-01-03T21:00:01.989Z,336.30
2024-01-03T21:10:01.523Z,363.00
2024-01-03T21:20:01.081Z,333.80
2024-01-03T21:30:01.242Z,341.20
2024-01-03T21:40:01.031Z,355.30
2024-01-03T21:50:01.150Z,333.30
2024-01-03T22:00:03.352Z,343.30
2024-01-03T22:10:01.341Z,341.80
2024-01-03T22:20:01.184Z,351.10
2024-01-03T22:30:00.381Z,343.10
2024-01-03T22:40:01.937Z,309.80
2024-01-03T22:50:01.157Z,286.90
2024-01-03T23:00:00.508Z,272.30
2024-01-03T23:10:01.062Z,307.50
2024-01-03T23:20:01.588Z,317.70
2024-01-03T23:30:01.607Z,317.30
2024-01-03T23:50:01.109Z,279.90
